• Join FlightAware (Why Join?)
  • Login
  • US Flag 
09:06AM EDT


 

Airport Tracker/Info


-or-


 

Live Flight TrackerFlight Track Log ✈ SWR180 ✈ 21-Apr-2013 ✈ LSZH / ZRH - VTBS / BKK

Flight Track Log - Related Links

Times and Time Zones

All times are in EDT time to prevent confusion due to time zone crossing. See the SWR180 flight status page for this flight to view local times or setup timezone preferences in your user account.

Time Position Orientation Groundspeed Altitude Reporting Facility
EDT Latitude Longitude Course Direction KTS MPH feet Rate Location/Type
05:01PM 47.4860 8.5280 333° Northwest 163 188 1,700  Level FlightAware
05:01PM 47.5040 8.5160 336° Northwest 163 188 2,400 1,620 Climbing FlightAware
05:02PM 47.5250 8.5020 336° Northwest 159 183 3,200 1,320 Climbing FlightAware
05:02PM 47.5370 8.5020 360° North 173 199 3,400 960 Climbing FlightAware
05:02PM 47.5470 8.5130 37° Northeast 172 198 3,700 1,200 Climbing FlightAware
05:03PM 47.5540 8.5410 70° East 174 200 4,200 960 Climbing FlightAware
05:03PM 47.5580 8.5780 81° East 183 211 4,600 600 Climbing FlightAware
05:03PM 47.5610 8.6110 82° East 202 232 4,800 600 Climbing FlightAware
05:04PM 47.5640 8.6320 78° East 211 243 5,000 780 Climbing FlightAware
05:04PM 47.5700 8.6770 79° East 230 265 5,400 720 Climbing FlightAware
05:05PM 47.5560 8.7340 110° East 245 282 5,900 840 Climbing FlightAware
05:05PM 47.5410 8.7500 144° Southeast 257 296 6,200 1,200 Climbing FlightAware
05:06PM 47.5100 8.7790 148° Southeast 274 315 6,800 1,200 Climbing FlightAware
05:06PM 47.4830 8.8060 146° Southeast 279 321 7,300 1,320 Climbing FlightAware
05:06PM 47.4690 8.8270 135° Southeast 286 329 7,700 1,800 Climbing FlightAware
05:07PM 47.4620 8.8550 110° East 292 336 8,200 2,160 Climbing FlightAware
05:07PM 47.4590 8.8750 103° East 291 335 8,600 1,800 Climbing FlightAware
05:07PM 47.4510 8.9310 102° East 295 339 9,400 1,020 Climbing FlightAware
05:09PM 47.4130 9.1970 102° East 360 414 11,300 1,020 Climbing FlightAware
05:10PM 47.4170 9.3070 87° East 370 426 12,400 1,380 Climbing FlightAware
05:11PM 47.4390 9.4070 72° East 378 435 13,300 1,320 Climbing FlightAware
05:11PM 47.4340 9.5240 94° East 385 443 14,300 1,380 Climbing FlightAware
05:12PM 47.4300 9.6350 93° East 393 452 15,300 1,680 Climbing FlightAware
05:13PM 47.4230 9.8160 93° East 388 447 17,400 1,620 Climbing FlightAware
05:14PM 47.4190 9.9250 93° East 395 455 18,300 1,320 Climbing FlightAware
05:15PM 47.4150 10.0340 93° East 397 457 19,200 1,260 Climbing FlightAware
05:15PM 47.4100 10.1550 93° East 402 463 20,100 1,080 Climbing FlightAware
05:17PM 47.3960 10.4700 94° East 419 482 22,100 960 Climbing FlightAware
05:18PM 47.3910 10.5830 94° East 424 488 22,700 960 Climbing FlightAware
05:19PM 47.3850 10.7160 94° East 429 494 23,500 1,020 Climbing FlightAware
05:19PM 47.3810 10.8130 93° East 430 495 24,100 1,020 Climbing FlightAware
05:20PM 47.3750 10.9450 94° East 430 495 24,900 960 Climbing FlightAware
05:21PM 47.3680 11.0830 94° East 431 496 25,600 900 Climbing FlightAware
05:21PM 47.3620 11.1940 95° East 434 499 26,100 840 Climbing FlightAware
05:22PM 47.3550 11.3430 94° East 437 503 26,800 900 Climbing FlightAware
05:23PM 47.3490 11.4590 94° East 433 498 27,500 1,080 Climbing FlightAware
05:24PM 47.3430 11.5720 94° East 427 491 28,300 1,020 Climbing FlightAware
05:24PM 47.3360 11.6990 95° East 425 489 29,000 960 Climbing FlightAware
05:25PM 47.3310 11.7960 94° East 422 486 29,500 960 Climbing FlightAware
05:26PM 47.3230 11.9360 95° East 418 481 30,300 840 Climbing FlightAware
05:26PM 47.3160 12.0600 95° East 415 478 30,900 720 Climbing FlightAware
05:27PM 47.3090 12.1690 95° East 413 475 31,400 720 Climbing FlightAware
05:28PM 47.3030 12.2790 95° East 410 472 31,900 600 Climbing FlightAware
05:28PM 47.2950 12.4120 95° East 409 471 32,300 420 Climbing FlightAware
05:29PM 47.2870 12.5340 95° East 410 472 32,600 300 Climbing FlightAware
05:30PM 47.2810 12.6390 95° East 411 473 32,800 300 Climbing FlightAware
05:31PM 47.2740 12.7520 95° East 413 475 33,000 120 Climbing FlightAware
05:32PM 47.2630 12.9240 95° East 423 487 33,000  Level FlightAware
05:32PM 47.2550 13.0370 96° East 426 490 33,000  Level FlightAware
05:33PM 47.2440 13.1990 96° East 426 490 33,000  Level FlightAware
05:34PM 47.2370 13.3040 96° East 426 490 33,000  Level FlightAware
05:34PM 47.2290 13.4250 96° East 427 491 33,000  Level FlightAware
05:35PM 47.2220 13.5200 96° East 427 491 33,000  Level FlightAware
05:36PM 47.2130 13.6440 96° East 427 491 33,000  Level FlightAware
05:37PM 47.2030 13.7890 96° East 428 493 33,000  Level FlightAware
05:37PM 47.1940 13.9000 97° East 33,000  Level FlightAware
05:38PM 47.1840 14.0440 96° East 428 493 33,000  Level FlightAware
05:39PM 47.1750 14.1640 96° East 429 494 33,000  Level FlightAware
05:39PM 47.1660 14.2820 96° East 430 495 33,000  Level FlightAware
05:40PM 47.1550 14.4190 97° East 430 495 33,000  Level FlightAware
05:41PM 47.1450 14.5480 96° East 430 495 33,000  Level FlightAware
05:42PM 47.1350 14.6650 97° East 431 496 33,000  Level FlightAware
05:42PM 47.1260 14.7800 97° East 433 498 33,000  Level FlightAware
05:43PM 47.1150 14.9140 97° East 435 501 33,000  Level FlightAware
05:44PM 47.1050 15.0300 97° East 433 498 33,000  Level FlightAware
05:44PM 47.0930 15.1650 97° East 433 498 33,000  Level FlightAware
05:45PM 47.0840 15.2780 97° East 434 499 33,000  Level FlightAware
05:46PM 47.0730 15.3990 98° East 435 501 33,000  Level FlightAware
05:46PM 47.0620 15.5260 97° East 436 502 33,000  Level FlightAware
05:47PM 47.0510 15.6450 98° East 437 503 33,000  Level FlightAware
05:48PM 47.0390 15.7790 97° East 437 503 33,000  Level FlightAware
05:49PM 47.0280 15.8980 98° East 438 504 33,000  Level FlightAware
05:49PM 47.0140 16.0160 100° East 437 503 33,000  Level FlightAware
05:50PM 46.9920 16.1400 105° East 437 503 33,000  Level FlightAware
05:51PM 46.9730 16.2570 103° East 438 504 33,000  Level FlightAware
05:51PM 46.9560 16.3710 102° East 440 506 33,000  Level FlightAware
05:52PM 46.9360 16.5080 102° East 442 509 33,000  Level FlightAware
05:53PM 46.9180 16.6240 103° East 441 507 33,000  Level FlightAware
05:53PM 46.8980 16.7510 103° East 441 507 33,000  Level FlightAware
05:54PM 46.8800 16.8690 103° East 442 509 33,000  Level FlightAware
05:55PM 46.8600 16.9970 103° East 443 510 33,000  Level FlightAware
05:56PM 46.8410 17.1140 103° East 443 510 33,000  Level FlightAware
05:56PM 46.8230 17.2300 103° East 444 511 33,000  Level FlightAware
05:57PM 46.8020 17.3640 103° East 443 510 33,000  Level FlightAware
05:58PM 46.7830 17.4810 103° East 442 509 33,000  Level FlightAware
05:58PM 46.7640 17.5970 103° East 443 510 33,000  Level FlightAware
05:59PM 46.7430 17.7240 104° East 445 512 33,000  Level FlightAware
06:00PM 46.7260 17.8310 103° East 447 514 33,000  Level FlightAware
06:00PM 46.7040 17.9640 104° East 447 514 33,000  Level FlightAware
06:01PM 46.6830 18.0840 104° East 449 517 33,000  Level FlightAware
06:02PM 46.6640 18.1990 103° East 449 517 33,000  Level FlightAware
06:03PM 46.6410 18.3330 104° East 448 516 33,000  Level FlightAware
06:03PM 46.6210 18.4520 104° East 448 516 33,000  Level FlightAware
06:04PM 46.6010 18.5670 104° East 450 518 33,000  Level FlightAware
06:05PM 46.5780 18.7020 104° East 453 521 33,000  Level FlightAware
06:05PM 46.5550 18.8350 104° East 453 521 33,000  Level FlightAware
06:06PM 46.5340 18.9520 105° East 454 522 33,000  Level FlightAware
06:07PM 46.5160 19.0560 104° East 454 522 33,000  Level FlightAware
06:07PM 46.4900 19.2040 104° East 454 522 33,000  Level FlightAware
06:08PM 46.4690 19.3210 105° East 453 521 33,000  Level FlightAware
06:09PM 46.4450 19.4500 105° East 454 522 33,000  Level FlightAware
06:10PM 46.4240 19.5700 104° East 457 526 33,000  Level FlightAware
06:10PM 46.4020 19.6880 105° East 458 527 33,000  Level FlightAware
06:11PM 46.3790 19.8120 105° East 459 528 33,000  Level FlightAware
06:12PM 46.3550 19.9420 105° East 457 526 33,000  Level FlightAware
06:12PM 46.3280 20.0850 105° East 458 527 33,000  Level FlightAware
06:13PM 46.3090 20.1870 105° East 458 527 33,000  Level FlightAware
06:14PM 46.2840 20.3220 105° East 459 528 33,000  Level FlightAware
06:14PM 46.2620 20.4360 106° East 457 526 33,000  Level FlightAware
06:15PM 46.2410 20.5470 105° East 459 528 33,000  Level FlightAware
06:16PM 46.2150 20.6800 106° East 458 527 33,000  Level FlightAware
06:17PM 46.1750 20.8870 106° East 461 531 33,000  Level FlightAware
06:18PM 46.1420 21.0550 106° East 461 531 33,000  Level FlightAware
06:18PM 46.1250 21.1390 106° East 463 533 33,000  Level FlightAware
06:20PM 46.0840 21.3480 106° East 464 534 33,000  Level FlightAware
06:20PM 46.0490 21.5190 106° East 465 535 33,000  Level FlightAware
06:21PM 46.0220 21.6560 106° East 466 536 33,000  Level FlightAware
06:22PM 45.9970 21.7750 107° East 466 536 33,000  Level FlightAware
06:23PM 45.9720 21.9000 106° East 468 539 33,000  Level FlightAware
06:23PM 45.9470 22.0190 107° East 469 540 33,000  Level FlightAware
06:24PM 45.9240 22.1320 106° East 469 540 33,000  Level FlightAware
06:25PM 45.8950 22.2710 107° East 467 537 33,000  Level FlightAware
06:25PM 45.8740 22.3670 107° East 33,000  Level FlightAware
06:26PM 45.8530 22.4670 107° East 469 540 33,000  Level FlightAware
06:27PM 45.8240 22.6070 107° East 468 539 33,000  Level FlightAware
06:27PM 45.7900 22.7630 107° East 467 537 33,000  Level FlightAware
06:28PM 45.7620 22.8950 107° East 466 536 33,000  Level FlightAware
06:29PM 45.7380 23.0060 107° East 464 534 33,000  Level FlightAware
06:30PM 45.7100 23.1340 107° East 463 533 33,000  Level FlightAware
06:30PM 45.6830 23.2580 107° East 463 533 33,000  Level FlightAware
06:31PM 45.6490 23.4090 108° East 462 532 33,000  Level FlightAware
06:32PM 45.6240 23.5230 107° East 462 532 33,000  Level FlightAware
06:32PM 45.6080 23.5940 108° East 461 531 33,000  Level FlightAware
06:33PM 45.5660 23.7800 108° East 461 531 33,000  Level FlightAware
06:34PM 45.5420 23.8880 108° East 462 532 33,000  Level FlightAware
06:35PM 45.5010 24.0670 108° East 461 531 33,000  Level FlightAware
06:36PM 45.4770 24.1750 108° East 461 531 33,000  Level FlightAware
06:36PM 45.4450 24.3100 109° East 460 529 33,000  Level FlightAware
06:37PM 45.4180 24.4310 108° East 459 528 33,000  Level FlightAware
06:38PM 45.3950 24.5300 108° East 457 526 33,000  Level FlightAware
06:38PM 45.3640 24.6600 109° East 454 522 33,000  Level FlightAware
06:39PM 45.3370 24.7770 108° East 452 520 33,000  Level FlightAware
06:40PM 45.3100 24.8890 109° East 449 517 33,000  Level FlightAware
06:41PM 45.2780 25.0210 109° East 446 513 33,000  Level FlightAware
06:41PM 45.2430 25.1700 108° East 445 512 33,000  Level FlightAware
06:42PM 45.2130 25.2950 109° East 445 512 33,000  Level FlightAware
06:43PM 45.1870 25.4000 109° East 447 514 33,000  Level FlightAware
06:44PM 45.1600 25.5110 109° East 447 514 33,000  Level FlightAware
06:44PM 45.1280 25.6450 109° East 446 513 33,000  Level FlightAware
06:45PM 45.1030 25.7450 109° East 444 511 33,000  Level FlightAware
06:45PM 45.0820 25.8320 109° East 443 510 33,000  Level FlightAware
06:46PM 45.0520 25.9500 110° East 444 511 33,000  Level FlightAware
06:47PM 45.0340 26.0250 109° East 444 511 33,000  Level FlightAware
06:47PM 45.0050 26.1380 110° East 444 511 33,000  Level FlightAware
06:48PM 44.9770 26.2520 109° East 444 511 33,000  Level FlightAware
06:49PM 44.9490 26.3630 110° East 444 511 33,000  Level FlightAware
06:49PM 44.9210 26.4730 110° East 444 511 33,000  Level FlightAware
06:50PM 44.8890 26.5970 110° East 445 512 33,000  Level FlightAware
06:51PM 44.8610 26.7080 110° East 447 514 33,000  Level FlightAware
06:52PM 44.8310 26.8250 110° East 449 517 33,000  Level FlightAware
06:52PM 44.8010 26.9400 110° East 453 521 33,000  Level FlightAware
06:53PM 44.7670 27.0680 110° East 455 524 33,000  Level FlightAware
06:54PM 44.7410 27.1690 110° East 457 526 33,000  Level FlightAware
06:54PM 44.7090 27.2910 110° East 458 527 33,000  Level FlightAware
06:55PM 44.6760 27.4160 110° East 458 527 33,000  Level FlightAware
06:56PM 44.6470 27.5230 111° Southeast 459 528 33,000  Level FlightAware
06:56PM 44.6200 27.6260 110° East 462 532 33,000  Level FlightAware
06:57PM 44.5820 27.7670 111° Southeast 464 534 33,000  Level FlightAware
06:58PM 44.5400 27.9230 111° Southeast 466 536 33,000  Level FlightAware
06:59PM 44.5130 28.0220 111° Southeast 466 536 33,000  Level FlightAware
06:59PM 44.4750 28.1600 111° Southeast 466 536 33,000  Level FlightAware
07:00PM 44.4450 28.2710 111° Southeast 465 535 33,000  Level FlightAware
07:01PM 44.4140 28.3860 111° Southeast 468 539 33,000  Level FlightAware
07:01PM 44.3860 28.4870 111° Southeast 468 539 33,000  Level FlightAware
07:02PM 44.3440 28.6370 111° Southeast 468 539 33,000  Level FlightAware
07:03PM 44.3130 28.7500 111° Southeast 468 539 33,000  Level FlightAware
07:04PM 44.2770 28.8780 111° Southeast 469 540 33,000  Level FlightAware
07:04PM 44.2470 28.9820 112° Southeast 469 540 33,000  Level FlightAware
07:05PM 44.2130 29.1020 112° Southeast 470 541 33,000  Level FlightAware
07:06PM 44.1750 29.2350 112° Southeast 472 543 33,000  Level FlightAware
07:06PM 44.1470 29.3330 112° Southeast 472 543 33,000  Level FlightAware
07:07PM 44.1150 29.4450 112° Southeast 473 544 33,000  Level FlightAware
07:08PM 44.0790 29.5690 112° Southeast 473 544 33,000  Level FlightAware
07:09PM 44.0420 29.6970 112° Southeast 472 543 33,000  Level FlightAware
07:09PM 44.0070 29.8190 112° Southeast 472 543 33,000  Level FlightAware
07:10PM 43.9740 29.9300 112° Southeast 471 542 33,000  Level FlightAware
07:11PM 43.9280 30.0850 112° Southeast 474 545 33,000  Level FlightAware
07:12PM 43.8910 30.2120 112° Southeast 474 545 33,000  Level FlightAware
07:12PM 43.8570 30.3240 113° Southeast 474 545 33,000  Level FlightAware
07:13PM 43.8200 30.4480 112° Southeast 473 544 33,000  Level FlightAware
07:14PM 43.7840 30.5720 112° Southeast 471 542 33,000  Level FlightAware
07:14PM 43.7560 30.6850 109° East 471 542 33,000  Level FlightAware
07:15PM 43.7230 30.8150 109° East 470 541 33,000  Level FlightAware
07:16PM 43.6940 30.9250 110° East 471 542 33,000  Level FlightAware
07:16PM 43.6630 31.0420 110° East 468 539 33,000  Level FlightAware
07:17PM 43.6220 31.1930 111° Southeast 466 536 33,000  Level FlightAware
07:18PM 43.5880 31.3170 111° Southeast 464 534 33,000  Level FlightAware
07:19PM 43.5540 31.4380 111° Southeast 464 534 33,000  Level FlightAware
07:20PM 43.5230 31.5510 111° Southeast 464 534 33,000  Level FlightAware
07:20PM 43.4940 31.6550 111° Southeast 464 534 33,000  Level FlightAware
07:21PM 43.4570 31.7840 112° Southeast 463 533 33,000  Level FlightAware
07:22PM 43.4230 31.8940 113° Southeast 462 532 33,000  Level FlightAware
07:22PM 43.3860 32.0150 113° Southeast 462 532 33,000  Level FlightAware
07:23PM 43.3530 32.1230 113° Southeast 461 531 33,000  Level FlightAware
07:24PM 43.3210 32.2270 113° Southeast 462 532 33,000  Level FlightAware
07:24PM 43.2830 32.3530 112° Southeast 462 532 33,000  Level FlightAware
07:25PM 43.2540 32.4640 110° East 463 533 33,000  Level FlightAware
07:26PM 43.2240 32.5700 111° Southeast 463 533 33,000  Level FlightAware
07:27PM 43.1740 32.6820 121° Southeast 465 535 33,000  Level FlightAware
07:27PM 43.1260 32.7830 123° Southeast 466 536 33,000  Level FlightAware
07:28PM 43.0730 32.8960 123° Southeast 466 536 33,000  Level FlightAware
07:29PM 43.0270 32.9950 122° Southeast 465 535 33,000  Level FlightAware
07:29PM 42.9750 33.1060 123° Southeast 464 534 33,000  Level FlightAware
07:30PM 42.9400 33.1810 122° Southeast 464 534 33,000  Level FlightAware
07:30PM 42.8990 33.2680 123° Southeast 463 533 33,000  Level FlightAware
07:31PM 42.8490 33.3750 122° Southeast 462 532 33,000  Level FlightAware
07:32PM 42.8060 33.4650 123° Southeast 461 531 33,000  Level FlightAware
07:33PM 42.7520 33.5780 123° Southeast 459 528 33,000  Level FlightAware
07:33PM 42.7050 33.6780 123° Southeast 460 529 33,000  Level FlightAware
07:34PM 42.6540 33.7850 123° Southeast 462 532 33,000  Level FlightAware
07:35PM 42.6130 33.8690 124° Southeast 462 532 33,000  Level FlightAware
07:35PM 42.5600 33.9800 123° Southeast 463 533 33,000  Level FlightAware
07:36PM 42.5080 34.0870 123° Southeast 464 534 33,000  Level FlightAware
07:37PM 42.4690 34.1680 123° Southeast 464 534 33,000  Level FlightAware
07:38PM 42.4190 34.2720 123° Southeast 464 534 33,000  Level FlightAware
07:38PM 42.3790 34.3550 123° Southeast 464 534 33,000  Level FlightAware
07:39PM 42.3400 34.4370 123° Southeast 464 534 33,000  Level FlightAware
07:40PM 42.3000 34.5200 123° Southeast 464 534 33,000  Level FlightAware
07:40PM 42.2600 34.6030 123° Southeast 464 534 33,000  Level FlightAware
07:41PM 42.2100 34.7060 123° Southeast 464 534 33,000  Level FlightAware
07:42PM 42.1710 34.7890 122° Southeast 464 534 33,000  Level FlightAware
07:42PM 42.1310 34.8710 123° Southeast 464 534 33,000  Level FlightAware
07:43PM 42.0910 34.9540 123° Southeast 464 534 33,000  Level FlightAware
07:44PM 42.0510 35.0360 123° Southeast 464 534 33,000  Level FlightAware
07:44PM 42.0120 35.1190 122° Southeast 464 534 33,000  Level FlightAware
07:45PM 41.9620 35.2220 123° Southeast 464 534 33,000  Level FlightAware
07:46PM 41.9220 35.3040 123° Southeast 464 534 33,000  Level FlightAware
07:48PM 41.8994 35.5860 96° East  Level Estimated
07:49PM 41.8852 35.7586 96° East  Level Estimated
07:50PM 41.8707 35.9311 96° East  Level Estimated
07:51PM 41.8560 36.1035 96° East  Level Estimated
07:52PM 41.8410 36.2759 97° East  Level Estimated
07:53PM 41.8258 36.4481 97° East  Level Estimated
07:54PM 41.8103 36.6203 97° East  Level Estimated
07:55PM 41.7946 36.7924 97° East  Level Estimated
07:56PM 41.7786 36.9644 97° East  Level Estimated
07:57PM 41.7623 37.1363 97° East  Level Estimated
07:58PM 41.7458 37.3082 97° East  Level Estimated
07:59PM 41.7291 37.4799 97° East  Level Estimated
08:00PM 41.7121 37.6516 98° East  Level Estimated
08:01PM 41.6948 37.8231 98° East  Level Estimated
08:02PM 41.6772 37.9946 98° East  Level Estimated
08:03PM 41.6595 38.1660 98° East  Level Estimated
08:04PM 41.6414 38.3372 98° East  Level Estimated
08:05PM 41.6231 38.5084 98° East  Level Estimated
08:06PM 41.6046 38.6795 98° East  Level Estimated
08:07PM 41.5858 38.8505 98° East  Level Estimated
08:08PM 41.5667 39.0214 98° East  Level Estimated
08:09PM 41.5474 39.1922 99° East  Level Estimated
08:10PM 41.5279 39.3628 99° East  Level Estimated
08:11PM 41.5080 39.5334 99° East  Level Estimated
08:12PM 41.4880 39.7039 99° East  Level Estimated
08:13PM 41.4677 39.8743 99° East  Level Estimated
08:14PM 41.4471 40.0445 99° East  Level Estimated
08:15PM 41.4263 40.2147 99° East  Level Estimated
08:16PM 41.4052 40.3847 99° East  Level Estimated
08:17PM 41.3839 40.5546 99° East  Level Estimated
08:18PM 41.3623 40.7245 100° East  Level Estimated
08:19PM 41.3405 40.8942 100° East  Level Estimated
08:20PM 41.3184 41.0638 100° East  Level Estimated
08:21PM 41.2961 41.2332 100° East  Level Estimated
08:22PM 41.2735 41.4026 100° East  Level Estimated
08:23PM 41.2507 41.5718 100° East  Level Estimated
08:24PM 41.2277 41.7409 100° East  Level Estimated
08:25PM 41.2044 41.9099 100° East  Level Estimated
08:26PM 41.1808 42.0788 100° East  Level Estimated
08:27PM 41.1570 42.2476 101° East  Level Estimated
08:28PM 41.1330 42.4162 101° East  Level Estimated
08:29PM 41.1087 42.5847 101° East  Level Estimated
08:30PM 41.0841 42.7531 101° East  Level Estimated
08:31PM 41.0594 42.9214 101° East  Level Estimated
08:31PM 38.3580 41.8560 101° East 483 556 33,000  Level FlightAware
08:32PM 41.0343 43.0895 101° East  Level Estimated
08:32PM 38.3310 41.9410 112° Southeast 483 556 33,000  Level FlightAware
08:32PM 38.3030 42.0310 112° Southeast 483 556 33,000  Level FlightAware
08:33PM 38.2670 42.1430 112° Southeast 483 556 33,000  Level FlightAware
08:34PM 38.2390 42.2330 112° Southeast 483 556 33,000  Level FlightAware
08:35PM 38.2560 42.4490 84° East 481 554 33,000  Level FlightAware
08:35PM 38.2420 42.5430 101° East 481 554 33,000  Level FlightAware
08:36PM 38.2270 42.6380 101° East 481 554 33,000 960 Level FlightAware
08:37PM 38.1980 42.8210 101° East 486 559 34,500 1,260 Climbing FlightAware
08:37PM 38.1790 42.9410 101° East 486 559 34,900 300 Climbing FlightAware
08:38PM 38.1580 43.0700 102° East 491 565 35,000 60 Climbing FlightAware
08:39PM 38.1410 43.1780 101° East 494 568 35,000  Level FlightAware
08:40PM 38.1220 43.2920 102° East 489 563 35,000  Level FlightAware
08:40PM 38.0910 43.4170 107° East 493 567 35,000  Level FlightAware
08:41PM 38.0540 43.5230 114° Southeast 492 566 35,000  Level FlightAware
08:42PM 38.0170 43.6290 114° Southeast 492 566 35,000  Level FlightAware
08:42PM 37.9760 43.7460 114° Southeast 491 565 35,000  Level FlightAware
08:44PM 37.8830 44.0050 114° Southeast 492 566 35,000  Level FlightAware
08:45PM 37.8460 44.1080 114° Southeast 492 566 35,000  Level FlightAware
08:45PM 37.8020 44.2290 115° Southeast 494 568 35,000  Level FlightAware
08:46PM 37.7660 44.3270 115° Southeast 496 571 35,000  Level FlightAware
08:47PM 37.7340 44.4430 109° East 500 575 35,000  Level FlightAware
08:48PM 37.7150 44.5700 101° East 501 577 35,000  Level FlightAware
08:48PM 37.7050 44.6870 96° East 504 580 35,000  Level FlightAware
08:49PM 37.7000 44.8050 93° East 506 582 35,000  Level FlightAware
08:50PM 37.6940 44.9410 93° East 504 580 35,000  Level FlightAware
08:50PM 37.6850 45.0530 96° East 504 580 35,000  Level FlightAware
08:51PM 37.6610 45.1830 103° East 504 580 35,000  Level FlightAware
08:52PM 37.6320 45.2940 108° East 507 583 35,000  Level FlightAware
08:52PM 37.5980 45.4210 109° East 508 585 35,000  Level FlightAware
08:53PM 37.5680 45.5330 109° East 508 585 35,000  Level FlightAware
08:54PM 37.5380 45.6490 108° East 506 582 35,000  Level FlightAware
08:55PM 37.5040 45.7730 109° East 506 582 35,000  Level FlightAware
08:55PM 37.4820 45.8570 108° East 507 583 35,000  Level FlightAware
08:56PM 37.4440 45.9980 109° East 508 585 35,000  Level FlightAware
08:57PM 37.4170 46.0980 109° East 510 587 35,000  Level FlightAware
08:57PM 37.3810 46.2330 109° East 511 588 35,000  Level FlightAware
08:58PM 37.3520 46.3390 109° East 511 588 35,000  Level FlightAware
08:59PM 37.3280 46.4350 107° East 511 588 35,000  Level FlightAware
08:59PM 37.2970 46.5550 108° East 511 588 35,000  Level FlightAware
09:00PM 37.2780 46.6270 108° East 511 588 35,000  Level FlightAware
09:00PM 37.2590 46.6990 108° East 511 588 35,000  Level FlightAware
09:01PM 37.2280 46.8190 108° East 511 588 35,000  Level FlightAware
09:02PM 37.2030 46.9150 108° East 511 588 35,000  Level FlightAware
09:03PM 37.1790 47.0110 107° East 511 588 35,000  Level FlightAware
09:03PM 37.1540 47.1070 108° East 511 588 35,000  Level FlightAware
09:04PM 37.1230 47.2270 108° East 511 588 35,000  Level FlightAware
09:05PM 37.0980 47.3230 108° East 511 588 35,000  Level FlightAware
09:05PM 37.0730 47.4190 108° East 511 588 35,000  Level FlightAware
09:06PM 37.0480 47.5140 108° East 511 588 35,000  Level FlightAware
09:07PM 37.0230 47.6100 108° East 511 588 35,000  Level FlightAware
09:07PM 36.9980 47.7060 108° East 511 588 35,000  Level FlightAware
09:10PM 36.9423 48.0357 102° East  Level Estimated
09:11PM 36.9153 48.1938 102° East  Level Estimated
09:12PM 36.8880 48.3518 102° East  Level Estimated
09:13PM 36.8606 48.5097 102° East  Level Estimated
09:14PM 36.8329 48.6675 102° East  Level Estimated
09:15PM 36.8050 48.8251 102° East  Level Estimated
09:16PM 36.7769 48.9827 103° East  Level Estimated
09:17PM 36.7486 49.1401 103° East  Level Estimated
09:18PM 36.7201 49.2974 103° East  Level Estimated
09:19PM 36.6914 49.4546 103° East  Level Estimated
09:20PM 36.6625 49.6116 103° East  Level Estimated
09:21PM 36.6334 49.7686 103° East  Level Estimated
09:22PM 36.6041 49.9254 103° East  Level Estimated
09:23PM 36.5745 50.0821 103° East  Level Estimated
09:24PM 36.5448 50.2387 103° East  Level Estimated
09:25PM 36.5149 50.3952 103° East  Level Estimated
09:26PM 36.4847 50.5515 103° East  Level Estimated
09:27PM 36.4543 50.7078 104° East  Level Estimated
09:28PM 36.4238 50.8639 104° East  Level Estimated
09:29PM 36.3930 51.0199 104° East  Level Estimated
09:30PM 36.3621 51.1757 104° East  Level Estimated
09:31PM 36.3309 51.3314 104° East  Level Estimated
09:32PM 36.2996 51.4870 104° East  Level Estimated
09:33PM 36.2680 51.6425 104° East  Level Estimated
09:34PM 36.2362 51.7979 104° East  Level Estimated
09:35PM 36.2043 51.9531 104° East  Level Estimated
09:36PM 36.1721 52.1082 104° East  Level Estimated
09:37PM 36.1397 52.2632 104° East  Level Estimated
09:38PM 36.1071 52.4180 105° East  Level Estimated
09:39PM 36.0744 52.5728 105° East  Level Estimated
09:40PM 36.0414 52.7273 105° East  Level Estimated
09:41PM 36.0083 52.8818 105° East  Level Estimated
09:42PM 35.9749 53.0361 105° East  Level Estimated
09:43PM 35.9413 53.1903 105° East  Level Estimated
09:44PM 35.9076 53.3444 105° East  Level Estimated
09:45PM 35.8736 53.4983 105° East  Level Estimated
09:46PM 35.8395 53.6521 105° East  Level Estimated
09:47PM 35.8051 53.8058 105° East  Level Estimated
09:48PM 35.7706 53.9594 105° East  Level Estimated
09:49PM 35.7359 54.1128 106° East  Level Estimated
09:50PM 35.7009 54.2660 106° East  Level Estimated
09:51PM 35.6658 54.4192 106° East  Level Estimated
09:52PM 35.6305 54.5722 106° East  Level Estimated
09:53PM 35.5950 54.7250 106° East  Level Estimated
09:54PM 35.5593 54.8777 106° East  Level Estimated
09:55PM 35.5234 55.0303 106° East  Level Estimated
09:56PM 35.4873 55.1828 106° East  Level Estimated
09:57PM 35.4510 55.3351 106° East  Level Estimated
09:58PM 35.4146 55.4873 106° East  Level Estimated
09:59PM 35.3779 55.6393 106° East  Level Estimated
10:00PM 35.3410 55.7912 107° East  Level Estimated
10:01PM 35.3040 55.9430 107° East  Level Estimated
10:02PM 35.2668 56.0946 107° East  Level Estimated
10:03PM 35.2294 56.2461 107° East  Level Estimated
10:04PM 35.1917 56.3974 107° East  Level Estimated
10:05PM 35.1539 56.5486 107° East  Level Estimated
10:06PM 35.1160 56.6997 107° East  Level Estimated
10:07PM 35.0778 56.8506 107° East  Level Estimated
10:08PM 35.0394 57.0014 107° East  Level Estimated
10:09PM 35.0009 57.1520 107° East  Level Estimated
10:10PM 34.9622 57.3025 107° East  Level Estimated
10:11PM 34.9233 57.4529 107° East  Level Estimated
10:12PM 34.8842 57.6031 108° East  Level Estimated
10:13PM 34.8449 57.7532 108° East  Level Estimated
10:14PM 34.8054 57.9031 108° East  Level Estimated
10:15PM 34.7658 58.0529 108° East  Level Estimated
10:16PM 34.7259 58.2025 108° East  Level Estimated
10:17PM 34.6859 58.3520 108° East  Level Estimated
10:18PM 34.6457 58.5014 108° East  Level Estimated
10:19PM 34.6053 58.6506 108° East  Level Estimated
10:20PM 34.5648 58.7996 108° East  Level Estimated
10:21PM 34.5240 58.9485 108° East  Level Estimated
10:22PM 34.4831 59.0973 108° East  Level Estimated
10:23PM 34.4420 59.2459 109° East  Level Estimated
10:24PM 34.4007 59.3944 109° East  Level Estimated
10:25PM 34.3592 59.5427 109° East  Level Estimated
10:26PM 34.3176 59.6909 109° East  Level Estimated
10:27PM 34.2758 59.8389 109° East  Level Estimated
10:28PM 34.2338 59.9868 109° East  Level Estimated
10:29PM 34.1916 60.1345 109° East  Level Estimated
10:30PM 34.1492 60.2821 109° East  Level Estimated
10:31PM 34.1067 60.4296 109° East  Level Estimated
10:32PM 34.0640 60.5769 109° East  Level Estimated
10:33PM 34.0211 60.7240 109° East  Level Estimated
10:34PM 33.9781 60.8710 109° East  Level Estimated
10:35PM 33.9348 61.0178 110° East  Level Estimated
10:36PM 33.8914 61.1646 110° East  Level Estimated
10:37PM 33.8478 61.3111 110° East  Level Estimated
10:38PM 33.8041 61.4575 110° East  Level Estimated
10:39PM 33.7602 61.6037 110° East  Level Estimated
10:40PM 33.7161 61.7499 110° East  Level Estimated
10:41PM 33.6718 61.8958 110° East  Level Estimated
10:42PM 33.6274 62.0416 110° East  Level Estimated
10:43PM 33.5827 62.1872 110° East  Level Estimated
10:44PM 33.5380 62.3327 110° East  Level Estimated
10:45PM 33.4930 62.4781 110° East  Level Estimated
10:46PM 33.4479 62.6233 110° East  Level Estimated
10:47PM 33.4026 62.7683 110° East  Level Estimated
10:48PM 33.3572 62.9132 111° Southeast  Level Estimated
10:49PM 33.3115 63.0579 111° Southeast  Level Estimated
10:50PM 33.2657 63.2025 111° Southeast  Level Estimated
10:51PM 33.2198 63.3470 111° Southeast  Level Estimated
10:52PM 33.1736 63.4912 111° Southeast  Level Estimated
10:53PM 33.1273 63.6354 111° Southeast  Level Estimated
10:54PM 33.0809 63.7794 111° Southeast  Level Estimated
10:55PM 33.0343 63.9232 111° Southeast  Level Estimated
10:56PM 32.9875 64.0668 111° Southeast  Level Estimated
10:57PM 32.9405 64.2104 111° Southeast  Level Estimated
10:58PM 32.8934 64.3537 111° Southeast  Level Estimated
10:59PM 32.8461 64.4970 111° Southeast  Level Estimated
11:00PM 32.7987 64.6400 111° Southeast  Level Estimated
11:01PM 32.7511 64.7829 112° Southeast  Level Estimated
11:02PM 32.7033 64.9257 112° Southeast  Level Estimated
11:03PM 32.6554 65.0683 112° Southeast  Level Estimated
11:04PM 32.6073 65.2107 112° Southeast  Level Estimated
11:05PM 32.5590 65.3530 112° Southeast  Level Estimated
11:06PM 32.5106 65.4952 112° Southeast  Level Estimated
11:07PM 32.4620 65.6372 112° Southeast  Level Estimated
11:08PM 32.4133 65.7790 112° Southeast  Level Estimated
11:09PM 32.3644 65.9207 112° Southeast  Level Estimated
11:10PM 32.3154 66.0622 112° Southeast  Level Estimated
11:11PM 32.2662 66.2036 112° Southeast  Level Estimated
11:12PM 32.2168 66.3448 112° Southeast  Level Estimated
11:13PM 32.1673 66.4859 112° Southeast  Level Estimated
11:13PM 26.2290 65.0980 112° Southeast 563 648 37,000  Level FlightAware
11:13PM 26.1680 65.1970 124° Southeast 562 647 37,000  Level FlightAware
11:14PM 26.1030 65.3020 125° Southeast 561 646 37,000  Level FlightAware
11:15PM 26.0440 65.3960 125° Southeast 562 647 37,000  Level FlightAware
11:15PM 25.9740 65.5070 125° Southeast 564 649 37,000  Level FlightAware
11:16PM 25.9160 65.6000 125° Southeast 564 649 37,000  Level FlightAware
11:17PM 25.8550 65.6970 125° Southeast 563 648 37,000  Level FlightAware
11:17PM 25.7890 65.8020 125° Southeast 564 649 37,000  Level FlightAware
11:18PM 25.7300 65.8950 125° Southeast 564 649 37,000  Level FlightAware
11:19PM 25.6610 66.0050 125° Southeast 565 650 37,000  Level FlightAware
11:20PM 25.6010 66.1000 125° Southeast 567 652 37,000  Level FlightAware
11:20PM 25.5330 66.2060 125° Southeast 570 656 37,000  Level FlightAware
11:21PM 25.4740 66.3000 125° Southeast 570 656 37,000  Level FlightAware
11:22PM 25.4120 66.3980 125° Southeast 569 655 37,000  Level FlightAware
11:22PM 25.3420 66.5060 126° Southeast 567 652 37,000  Level FlightAware
11:23PM 25.2850 66.5960 125° Southeast 566 651 37,000  Level FlightAware
11:24PM 25.2150 66.7050 125° Southeast 563 648 37,000  Level FlightAware
11:24PM 25.1560 66.7970 125° Southeast 561 646 37,000  Level FlightAware
11:25PM 25.0960 66.8900 125° Southeast 559 643 37,000  Level FlightAware
11:26PM 25.0250 67.0000 125° Southeast 561 646 37,000  Level FlightAware
11:27PM 24.9660 67.0910 126° Southeast 560 644 37,000  Level FlightAware
11:27PM 24.9020 67.1950 124° Southeast 560 644 37,000  Level FlightAware
11:28PM 24.8530 67.2950 118° Southeast 559 643 37,000  Level FlightAware
11:29PM 24.8050 67.3980 117° Southeast 558 642 37,000  Level FlightAware
11:29PM 24.7510 67.5120 118° Southeast 556 640 37,000  Level FlightAware
11:30PM 24.7030 67.6130 118° Southeast 554 638 37,000  Level FlightAware
11:31PM 24.6480 67.7220 119° Southeast 553 636 37,000  Level FlightAware
11:31PM 24.5990 67.8200 119° Southeast 556 640 37,000  Level FlightAware
11:32PM 24.5490 67.9170 120° Southeast 553 636 37,000  Level FlightAware
11:33PM 24.4940 68.0270 119° Southeast 551 634 37,000  Level FlightAware
11:34PM 24.4430 68.1290 119° Southeast 550 633 37,000  Level FlightAware
11:34PM 24.3880 68.2360 119° Southeast 547 629 37,000  Level FlightAware
11:35PM 24.3390 68.3330 119° Southeast 544 626 37,000  Level FlightAware
11:36PM 24.2890 68.4300 119° Southeast 541 623 37,000  Level FlightAware
11:36PM 24.2340 68.5400 119° Southeast 541 623 37,000  Level FlightAware
11:37PM 24.1840 68.6360 120° Southeast 543 625 37,000  Level FlightAware
11:38PM 24.1380 68.7310 118° Southeast 546 628 37,000  Level FlightAware
11:38PM 24.0970 68.8420 112° Southeast 546 628 37,000  Level FlightAware
11:39PM 24.0690 68.9510 106° East 546 628 37,000  Level FlightAware
11:40PM 24.0370 69.0750 106° East 547 629 37,000  Level FlightAware
11:41PM 24.0100 69.1790 106° East 547 629 37,000  Level FlightAware
11:41PM 23.9780 69.2990 106° East 547 629 37,000  Level FlightAware
11:42PM 23.9510 69.4040 106° East 546 628 37,000  Level FlightAware
11:43PM 23.9270 69.4960 106° East 548 631 37,000  Level FlightAware
11:43PM 23.8920 69.6280 106° East 550 633 37,000  Level FlightAware
11:44PM 23.8630 69.7380 106° East 551 634 37,000  Level FlightAware
11:45PM 23.8310 69.8580 106° East 549 632 37,000  Level FlightAware
11:45PM 23.8020 69.9640 107° East 549 632 37,000  Level FlightAware
11:46PM 23.7730 70.0720 106° East 550 633 37,000  Level FlightAware
11:47PM 23.7410 70.1940 106° East 550 633 37,000  Level FlightAware
11:48PM 23.7120 70.3000 107° East 549 632 37,000  Level FlightAware
11:48PM 23.6850 70.4010 106° East 549 632 37,000  Level FlightAware
11:49PM 23.6560 70.5080 106° East 549 632 37,000  Level FlightAware
11:50PM 23.6280 70.6130 106° East 549 632 37,000  Level FlightAware
11:50PM 23.6040 70.7030 106° East 549 632 37,000  Level FlightAware
11:51PM 23.5810 70.7940 105° East 549 632 37,000  Level FlightAware
11:52PM 23.5570 70.8840 106° East 549 632 37,000  Level FlightAware
11:52PM 23.5270 70.9980 106° East 549 632 37,000  Level FlightAware
11:53PM 23.5030 71.0880 106° East 549 632 37,000  Level FlightAware
11:54PM 23.4790 71.1790 106° East 549 632 37,000  Level FlightAware
11:54PM 23.4560 71.2690 106° East 549 632 37,000  Level FlightAware
11:55PM 23.4320 71.3600 106° East 549 632 37,000  Level FlightAware
11:56PM 23.4020 71.4730 106° East 549 632 37,000  Level FlightAware
11:57PM 23.3780 71.5630 106° East 549 632 37,000  Level FlightAware
11:57PM 23.3540 71.6540 106° East 549 632 37,000  Level FlightAware
11:58PM 23.3310 71.7440 106° East 549 632 37,000  Level FlightAware
11:59PM 23.3010 71.8570 106° East 549 632 37,000 -60 Level FlightAware
12:01AM 23.2451 72.0956 104° East  Level Estimated
12:02AM 23.2130 72.2318 104° East  Level Estimated
12:03AM 23.1808 72.3680 104° East  Level Estimated
12:04AM 23.1485 72.5041 104° East  Level Estimated
12:05AM 23.1160 72.6402 105° East  Level Estimated
12:06AM 23.0835 72.7761 105° East  Level Estimated
12:07AM 23.0508 72.9120 105° East  Level Estimated
12:08AM 23.0180 73.0479 105° East  Level Estimated
12:09AM 22.9851 73.1837 105° East  Level Estimated
12:10AM 22.9521 73.3194 105° East  Level Estimated
12:11AM 22.9189 73.4550 105° East  Level Estimated
12:12AM 22.8857 73.5906 105° East  Level Estimated
12:13AM 22.8523 73.7262 105° East  Level Estimated
12:14AM 22.8188 73.8616 105° East  Level Estimated
12:15AM 22.7852 73.9970 105° East  Level Estimated
12:16AM 22.7515 74.1323 105° East  Level Estimated
12:17AM 22.7177 74.2675 105° East  Level Estimated
12:18AM 22.6837 74.4027 105° East  Level Estimated
12:19AM 22.6497 74.5378 105° East  Level Estimated
12:20AM 22.6155 74.6729 105° East  Level Estimated
12:21AM 22.5812 74.8079 105° East  Level Estimated
12:22AM 22.5468 74.9428 105° East  Level Estimated
12:23AM 22.5123 75.0776 105° East  Level Estimated
12:24AM 22.4777 75.2124 106° East  Level Estimated
12:25AM 22.4430 75.3471 106° East  Level Estimated
12:26AM 22.4081 75.4818 106° East  Level Estimated
12:27AM 22.3732 75.6163 106° East  Level Estimated
12:28AM 22.3381 75.7509 106° East  Level Estimated
12:29AM 22.3029 75.8853 106° East  Level Estimated
12:30AM 22.2676 76.0197 106° East  Level Estimated
12:31AM 22.2322 76.1540 106° East  Level Estimated
12:32AM 22.1967 76.2882 106° East  Level Estimated
12:33AM 22.1611 76.4224 106° East  Level Estimated
12:34AM 22.1254 76.5565 106° East  Level Estimated
12:35AM 22.0895 76.6905 106° East  Level Estimated
12:36AM 22.0536 76.8245 106° East  Level Estimated
12:37AM 22.0175 76.9584 106° East  Level Estimated
12:38AM 21.9814 77.0922 106° East  Level Estimated
12:39AM 21.9451 77.2260 106° East  Level Estimated
12:40AM 21.9087 77.3597 106° East  Level Estimated
12:41AM 21.8722 77.4933 106° East  Level Estimated
12:42AM 21.8356 77.6268 106° East  Level Estimated
12:43AM 21.7989 77.7603 106° East  Level Estimated
12:44AM 21.7621 77.8938 107° East  Level Estimated
12:45AM 21.7252 78.0271 107° East  Level Estimated
12:46AM 21.6882 78.1604 107° East  Level Estimated
12:47AM 21.6511 78.2936 107° East  Level Estimated
12:48AM 21.6138 78.4267 107° East  Level Estimated
12:49AM 21.5765 78.5598 107° East  Level Estimated
12:50AM 21.5390 78.6928 107° East  Level Estimated
12:51AM 21.5015 78.8258 107° East  Level Estimated
12:52AM 21.4638 78.9586 107° East  Level Estimated
12:53AM 21.4261 79.0914 107° East  Level Estimated
12:54AM 21.3882 79.2242 107° East  Level Estimated
12:55AM 21.3502 79.3568 107° East  Level Estimated
12:56AM 21.3121 79.4894 107° East  Level Estimated
12:57AM 21.2740 79.6219 107° East  Level Estimated
12:58AM 21.2357 79.7544 107° East  Level Estimated
12:59AM 21.1973 79.8868 107° East  Level Estimated
01:00AM 21.1588 80.0191 107° East  Level Estimated
01:01AM 21.1202 80.1514 107° East  Level Estimated
01:02AM 21.0815 80.2835 107° East  Level Estimated
01:03AM 21.0427 80.4157 107° East  Level Estimated
01:04AM 21.0038 80.5477 107° East  Level Estimated
01:05AM 20.9648 80.6797 108° East  Level Estimated
01:06AM 20.9257 80.8116 108° East  Level Estimated
01:07AM 20.8865 80.9434 108° East  Level Estimated
01:08AM 20.8472 81.0752 108° East  Level Estimated
01:09AM 20.8078 81.2069 108° East  Level Estimated
01:10AM 20.7683 81.3385 108° East  Level Estimated
01:11AM 20.7287 81.4701 108° East  Level Estimated
01:12AM 20.6890 81.6016 108° East  Level Estimated
01:13AM 20.6492 81.7330 108° East  Level Estimated
01:14AM 20.6092 81.8643 108° East  Level Estimated
01:15AM 20.5692 81.9956 108° East  Level Estimated
01:16AM 20.5291 82.1268 108° East  Level Estimated
01:17AM 20.4889 82.2580 108° East  Level Estimated
01:18AM 20.4486 82.3891 108° East  Level Estimated
01:19AM 20.4082 82.5201 108° East  Level Estimated
01:20AM 20.3677 82.6510 108° East  Level Estimated
01:21AM 20.3271 82.7819 108° East  Level Estimated
01:22AM 20.2864 82.9127 108° East  Level Estimated
01:23AM 20.2457 83.0434 108° East  Level Estimated
01:24AM 20.2048 83.1741 108° East  Level Estimated
01:25AM 20.1638 83.3047 108° East  Level Estimated
01:26AM 20.1227 83.4352 109° East  Level Estimated
01:27AM 20.0815 83.5657 109° East  Level Estimated
01:28AM 20.0403 83.6961 109° East  Level Estimated
01:29AM 19.9989 83.8264 109° East  Level Estimated
01:30AM 19.9574 83.9567 109° East  Level Estimated
01:31AM 19.9159 84.0869 109° East  Level Estimated
01:32AM 19.8742 84.2170 109° East  Level Estimated
01:33AM 19.8325 84.3470 109° East  Level Estimated
01:34AM 19.7906 84.4770 109° East  Level Estimated
01:35AM 19.7487 84.6069 109° East  Level Estimated
01:36AM 19.7067 84.7367 109° East  Level Estimated
01:37AM 19.6646 84.8665 109° East  Level Estimated
01:38AM 19.6224 84.9962 109° East  Level Estimated
01:39AM 19.5800 85.1259 109° East  Level Estimated
01:40AM 19.5376 85.2554 109° East  Level Estimated
01:41AM 19.4951 85.3849 109° East  Level Estimated
01:42AM 19.4526 85.5144 109° East  Level Estimated
01:43AM 19.4099 85.6438 109° East  Level Estimated
01:44AM 19.3671 85.7731 109° East  Level Estimated
01:45AM 19.3243 85.9023 109° East  Level Estimated
01:46AM 19.2813 86.0314 109° East  Level Estimated
01:47AM 19.2383 86.1606 109° East  Level Estimated
01:48AM 19.1951 86.2896 109° East  Level Estimated
01:49AM 19.1519 86.4185 110° East  Level Estimated
01:50AM 19.1086 86.5474 110° East  Level Estimated
01:51AM 19.0652 86.6763 110° East  Level Estimated
01:52AM 19.0217 86.8050 110° East  Level Estimated
01:53AM 18.9781 86.9337 110° East  Level Estimated
01:54AM 18.9345 87.0623 110° East  Level Estimated
01:55AM 18.8907 87.1909 110° East  Level Estimated
01:56AM 18.8469 87.3194 110° East  Level Estimated
01:57AM 18.8029 87.4478 110° East  Level Estimated
01:58AM 18.7589 87.5761 110° East  Level Estimated
01:59AM 18.7148 87.7044 110° East  Level Estimated
02:00AM 18.6706 87.8327 110° East  Level Estimated
02:01AM 18.6263 87.9608 110° East  Level Estimated
02:02AM 18.5820 88.0889 110° East  Level Estimated
02:03AM 18.5375 88.2169 110° East  Level Estimated
02:04AM 18.4930 88.3449 110° East  Level Estimated
02:05AM 18.4484 88.4728 110° East  Level Estimated
02:06AM 18.4036 88.6006 110° East  Level Estimated
02:07AM 18.3588 88.7283 110° East  Level Estimated
02:08AM 18.3140 88.8560 110° East  Level Estimated
02:09AM 18.2690 88.9836 110° East  Level Estimated
02:10AM 18.2239 89.1112 110° East  Level Estimated
02:11AM 18.1788 89.2387 110° East  Level Estimated
02:12AM 18.1336 89.3661 110° East  Level Estimated
02:13AM 18.0883 89.4935 110° East  Level Estimated
02:14AM 18.0429 89.6208 111° Southeast  Level Estimated
02:15AM 17.9974 89.7480 111° Southeast  Level Estimated
02:16AM 17.9519 89.8751 111° Southeast  Level Estimated
02:17AM 17.9062 90.0022 111° Southeast  Level Estimated
02:18AM 17.8605 90.1292 111° Southeast  Level Estimated
02:19AM 17.8147 90.2562 111° Southeast  Level Estimated
02:20AM 17.7688 90.3831 111° Southeast  Level Estimated
02:21AM 17.7229 90.5099 111° Southeast  Level Estimated
02:22AM 17.6768 90.6367 111° Southeast  Level Estimated
02:23AM 17.6307 90.7634 111° Southeast  Level Estimated
02:24AM 17.5845 90.8901 111° Southeast  Level Estimated
02:25AM 17.5382 91.0166 111° Southeast  Level Estimated
02:26AM 17.4918 91.1431 111° Southeast  Level Estimated
02:27AM 17.4454 91.2696 111° Southeast  Level Estimated
02:28AM 17.3988 91.3960 111° Southeast  Level Estimated
02:29AM 17.3522 91.5223 111° Southeast  Level Estimated
02:30AM 17.3055 91.6485 111° Southeast  Level Estimated
02:31AM 17.2588 91.7747 111° Southeast  Level Estimated
02:32AM 17.2119 91.9008 111° Southeast  Level Estimated
02:33AM 17.1650 92.0269 111° Southeast  Level Estimated
02:34AM 17.1180 92.1529 111° Southeast  Level Estimated
02:35AM 17.0709 92.2788 111° Southeast  Level Estimated
02:36AM 17.0238 92.4047 111° Southeast  Level Estimated
02:37AM 16.9765 92.5305 111° Southeast  Level Estimated
02:38AM 16.9292 92.6562 111° Southeast  Level Estimated
02:39AM 16.8818 92.7819 111° Southeast  Level Estimated
02:40AM 16.8344 92.9075 112° Southeast  Level Estimated
02:41AM 16.7868 93.0331 112° Southeast  Level Estimated
02:42AM 16.7392 93.1585 112° Southeast  Level Estimated
02:43AM 16.6915 93.2840 112° Southeast  Level Estimated
02:44AM 16.6437 93.4093 112° Southeast  Level Estimated
02:45AM 16.5959 93.5346 112° Southeast  Level Estimated
02:46AM 16.5480 93.6599 112° Southeast  Level Estimated
02:47AM 16.5000 93.7850 112° Southeast  Level Estimated
02:48AM 16.4519 93.9102 112° Southeast  Level Estimated
02:49AM 16.4038 94.0352 112° Southeast  Level Estimated
02:50AM 16.3556 94.1602 112° Southeast  Level Estimated
02:51AM 16.3073 94.2851 112° Southeast  Level Estimated
02:52AM 16.2589 94.4100 112° Southeast  Level Estimated
02:53AM 16.2105 94.5348 112° Southeast  Level Estimated
02:54AM 16.1620 94.6595 112° Southeast  Level Estimated
02:55AM 16.1134 94.7842 112° Southeast  Level Estimated
02:56AM 16.0647 94.9088 112° Southeast  Level Estimated
02:57AM 16.0160 95.0334 112° Southeast  Level Estimated
02:58AM 15.9672 95.1579 112° Southeast  Level Estimated
02:59AM 15.9183 95.2823 112° Southeast  Level Estimated
03:00AM 15.8694 95.4067 112° Southeast  Level Estimated
03:01AM 15.8204 95.5310 112° Southeast  Level Estimated
03:02AM 15.7713 95.6553 112° Southeast  Level Estimated
03:03AM 15.7222 95.7795 112° Southeast  Level Estimated
03:04AM 15.6729 95.9036 112° Southeast  Level Estimated
03:05AM 15.6236 96.0277 112° Southeast  Level Estimated
03:06AM 15.5743 96.1517 112° Southeast  Level Estimated
03:07AM 15.5249 96.2757 112° Southeast  Level Estimated
03:08AM 15.4754 96.3996 113° Southeast  Level Estimated
03:09AM 15.4258 96.5234 113° Southeast  Level Estimated
03:10AM 15.3762 96.6472 113° Southeast  Level Estimated
03:10AM 14.6480 99.1570 113° Southeast 452 520 27,500  Level FlightAware
03:11AM 15.3264 96.7709 113° Southeast  Level Estimated
03:11AM 14.6010 99.2490 118° Southeast 444 511 25,900  Level FlightAware
03:12AM 14.5740 99.3090 115° Southeast 429 494 25,200 -1,800 Descending FlightAware
03:12AM 14.5270 99.4080 116° Southeast 422 486 23,400 -1,980 Descending FlightAware
03:13AM 14.4930 99.4790 116° Southeast 416 479 22,100 -1,920 Descending FlightAware
03:14AM 14.4700 99.5270 116° Southeast 413 475 21,200 -1,920 Descending FlightAware
03:15AM 14.4230 99.6240 117° Southeast 405 466 19,400 -1,920 Descending FlightAware
03:15AM 14.3970 99.6790 116° Southeast 397 457 18,500 -1,740 Descending FlightAware
03:16AM 14.3540 99.7690 116° Southeast 384 442 17,000 -1,740 Descending FlightAware
03:17AM 14.3220 99.8350 117° Southeast 377 434 15,800 -1,740 Descending FlightAware
03:17AM 14.2870 99.9070 117° Southeast 370 426 14,600 -1,380 Descending FlightAware
03:18AM 14.2390 100.0060 117° Southeast 349 402 13,300 -1,080 Descending FlightAware
03:19AM 14.1970 100.0930 116° Southeast 322 371 12,400 -840 Descending FlightAware
03:20AM 14.1740 100.1400 117° Southeast 306 352 12,000 -720 Descending FlightAware
03:21AM 14.1480 100.1930 117° Southeast 291 335 11,500 -780 Descending FlightAware
03:22AM 14.1180 100.2580 115° Southeast 282 325 10,900 -720 Descending FlightAware
03:22AM 14.1050 100.3020 107° East 272 313 10,500 -720 Descending FlightAware
03:23AM 14.0850 100.3470 115° Southeast 262 302 10,000 -900 Descending FlightAware
03:23AM 14.0760 100.3760 108° East 258 297 9,600 -900 Descending FlightAware
03:24AM 14.0690 100.4150 100° East 258 297 9,200 -840 Descending FlightAware
03:24AM 14.0650 100.4500 97° East 249 287 8,800 -780 Descending FlightAware
03:25AM 14.0620 100.4840 95° East 237 273 8,400 -840 Descending FlightAware
03:25AM 14.0600 100.5070 95° East 232 267 8,100 -900 Descending FlightAware
03:25AM 14.0580 100.5340 94° East 232 267 7,800 -660 Descending FlightAware
03:26AM 14.0530 100.5610 101° East 229 264 7,500 -660 Descending FlightAware
03:26AM 14.0460 100.5900 104° East 230 265 7,200 -900 Descending FlightAware
03:27AM 14.0360 100.6210 108° East 228 262 6,700 -1,020 Descending FlightAware
03:27AM 14.0240 100.6510 112° Southeast 229 264 6,200 -1,020 Descending FlightAware
03:28AM 14.0140 100.6790 110° East 230 265 5,800 -1,020 Descending FlightAware
03:28AM 14.0040 100.7080 110° East 232 267 5,300 -1,140 Descending FlightAware
03:29AM 13.9950 100.7370 108° East 229 264 4,800 -1,020 Descending FlightAware
03:29AM 13.9850 100.7660 110° East 222 255 4,400 -840 Descending FlightAware
03:30AM 13.9770 100.7930 107° East 216 249 4,000 -780 Descending FlightAware
03:30AM 13.9680 100.8160 112° Southeast 221 254 3,700 -900 Descending FlightAware
03:30AM 13.9580 100.8250 139° Southeast 216 249 3,500 -960 Descending FlightAware
03:31AM 13.9470 100.8280 165° South 213 245 3,300 -720 Descending FlightAware
03:31AM 13.9160 100.8210 192° South 212 244 3,000 -720 Descending FlightAware
03:32AM 13.8860 100.8120 196° South 209 241 2,600 -540 Descending FlightAware
03:32AM 13.8600 100.8050 195° South 188 216 2,500 -240 Descending FlightAware
03:32AM 13.8430 100.8010 193° South 173 199 2,400 -240 Descending FlightAware
03:33AM 13.8180 100.7940 195° South 177 204 2,300 -240 Descending FlightAware
03:33AM 13.7990 100.7890 194° South 172 198 2,200 -600 Descending FlightAware
03:34AM 13.7770 100.7830 195° South 150 173 1,800 -840 Descending FlightAware
03:34AM 13.7550 100.7780 192° South 149 171 1,400 -780 Descending FlightAware
03:35AM 13.7400 100.7740 195° South 145 167 1,100 -720 Descending FlightAware
03:35AM 13.7260 100.7700 196° South 144 166 900 -660 Descending FlightAware
03:36AM 13.7040 100.7640 195° South 145 167 500 -480 Descending FlightAware
03:36AM 13.6890 100.7600 195° South 146 168 400 -240 Descending FlightAware
03:39AM 13.6811 100.7473 237° Southwest  Level Estimated
03:40AM 13.6811 100.7473 124° Southeast  Level Estimated
03:41AM 13.6811 100.7473 124° Southeast  Level Estimated
03:42AM 13.6811 100.7473 124° Southeast  Level Estimated
03:43AM 13.6811 100.7473 124° Southeast  Level Estimated
03:44AM 13.6811 100.7473 124° Southeast  Level Estimated